Terminal Aerodrome Forecast
Issued by NWS North Platte, NE

Home | Current Version | Previous Version | Text Only | Print | Product List | Glossary On
Versions: 1 2 3 4 5 6 7 8 9 10 11 12 13 14 15 16 17 18 19 20 21 22 23
714
FTUS43 KLBF 302029 AAA
TAFLBF
TAF AMD
KLBF 302029Z 3020/3118 08006KT P6SM FEW018 SCT250
     FM302200 07007KT P6SM BKN250
     FM310600 09007KT P6SM SCT015 BKN090
     FM310800 09005KT P6SM BKN015
     FM311200 08006KT P6SM OVC008=

USA.gov is the U.S. government's official web portal to all federal, state and local government web resources and services.